sensor_id;sensor_type;location;lat;lon;timestamp;temperature;humidity
5061;DHT22;2549;52.128;21.068;2022-12-29T00:01:31;9.20;97.40
5061;DHT22;2549;52.128;21.068;2022-12-29T00:03:58;9.20;97.40
5061;DHT22;2549;52.128;21.068;2022-12-29T00:06:25;9.20;97.30
5061;DHT22;2549;52.128;21.068;2022-12-29T00:08:52;9.30;97.30
5061;DHT22;2549;52.128;21.068;2022-12-29T00:11:28;9.30;97.20
5061;DHT22;2549;52.128;21.068;2022-12-29T00:13:55;9.20;97.20
5061;DHT22;2549;52.128;21.068;2022-12-29T00:16:42;9.20;97.20
5061;DHT22;2549;52.128;21.068;2022-12-29T00:19:10;9.10;97.30
5061;DHT22;2549;52.128;21.068;2022-12-29T00:21:58;9.20;97.30
5061;DHT22;2549;52.128;21.068;2022-12-29T00:24:44;9.20;97.30
5061;DHT22;2549;52.128;21.068;2022-12-29T00:27:28;9.20;97.20
5061;DHT22;2549;52.128;21.068;2022-12-29T00:30:18;9.20;97.20
5061;DHT22;2549;52.128;21.068;2022-12-29T00:33:14;9.20;97.30
5061;DHT22;2549;52.128;21.068;2022-12-29T00:36:02;9.30;97.30
5061;DHT22;2549;52.128;21.068;2022-12-29T00:38:33;9.20;97.20
5061;DHT22;2549;52.128;21.068;2022-12-29T00:41:21;9.20;97.20
5061;DHT22;2549;52.128;21.068;2022-12-29T00:44:07;9.20;97.20
5061;DHT22;2549;52.128;21.068;2022-12-29T00:46:38;9.20;97.20
5061;DHT22;2549;52.128;21.068;2022-12-29T00:49:07;9.20;97.20
5061;DHT22;2549;52.128;21.068;2022-12-29T00:51:54;9.30;97.20
5061;DHT22;2549;52.128;21.068;2022-12-29T00:54:21;9.20;97.20
5061;DHT22;2549;52.128;21.068;2022-12-29T00:56:49;9.30;97.20
5061;DHT22;2549;52.128;21.068;2022-12-29T00:59:16;9.30;97.20
5061;DHT22;2549;52.128;21.068;2022-12-29T01:01:44;9.30;97.20
5061;DHT22;2549;52.128;21.068;2022-12-29T01:04:12;9.20;97.50
5061;DHT22;2549;52.128;21.068;2022-12-29T01:06:40;9.20;97.00
5061;DHT22;2549;52.128;21.068;2022-12-29T01:09:08;9.30;97.10
5061;DHT22;2549;52.128;21.068;2022-12-29T01:11:54;9.20;97.00
5061;DHT22;2549;52.128;21.068;2022-12-29T01:14:21;9.20;97.10
5061;DHT22;2549;52.128;21.068;2022-12-29T01:16:48;9.20;97.10
5061;DHT22;2549;52.128;21.068;2022-12-29T01:19:16;9.20;97.00
5061;DHT22;2549;52.128;21.068;2022-12-29T01:21:44;9.20;96.90
5061;DHT22;2549;52.128;21.068;2022-12-29T01:24:12;9.20;97.00
5061;DHT22;2549;52.128;21.068;2022-12-29T01:26:39;9.20;97.00
5061;DHT22;2549;52.128;21.068;2022-12-29T01:29:06;9.30;96.90
5061;DHT22;2549;52.128;21.068;2022-12-29T01:31:33;9.30;96.90
5061;DHT22;2549;52.128;21.068;2022-12-29T01:34:00;9.20;96.80
5061;DHT22;2549;52.128;21.068;2022-12-29T01:36:27;9.30;96.80
5061;DHT22;2549;52.128;21.068;2022-12-29T01:38:54;9.30;96.80
5061;DHT22;2549;52.128;21.068;2022-12-29T01:41:21;9.30;96.80
5061;DHT22;2549;52.128;21.068;2022-12-29T01:43:55;9.30;96.60
5061;DHT22;2549;52.128;21.068;2022-12-29T01:51:50;9.30;96.50
5061;DHT22;2549;52.128;21.068;2022-12-29T01:54:30;9.30;96.50
5061;DHT22;2549;52.128;21.068;2022-12-29T01:57:01;9.30;96.50
5061;DHT22;2549;52.128;21.068;2022-12-29T01:59:33;9.30;96.50
5061;DHT22;2549;52.128;21.068;2022-12-29T02:02:01;9.30;96.40
5061;DHT22;2549;52.128;21.068;2022-12-29T02:04:30;9.30;96.40
5061;DHT22;2549;52.128;21.068;2022-12-29T02:07:05;9.30;96.40
5061;DHT22;2549;52.128;21.068;2022-12-29T02:09:34;9.30;96.30
5061;DHT22;2549;52.128;21.068;2022-12-29T02:12:02;9.30;96.30
5061;DHT22;2549;52.128;21.068;2022-12-29T02:14:29;9.30;96.60
5061;DHT22;2549;52.128;21.068;2022-12-29T02:17:29;9.30;96.70
5061;DHT22;2549;52.128;21.068;2022-12-29T02:25:15;9.30;96.70
5061;DHT22;2549;52.128;21.068;2022-12-29T02:27:58;9.30;96.60
5061;DHT22;2549;52.128;21.068;2022-12-29T02:38:59;9.30;96.60
5061;DHT22;2549;52.128;21.068;2022-12-29T02:41:31;9.30;96.70
5061;DHT22;2549;52.128;21.068;2022-12-29T02:44:12;9.30;96.70
5061;DHT22;2549;52.128;21.068;2022-12-29T02:46:44;9.30;96.90
5061;DHT22;2549;52.128;21.068;2022-12-29T02:49:20;9.30;97.10
5061;DHT22;2549;52.128;21.068;2022-12-29T02:52:02;9.30;97.20
5061;DHT22;2549;52.128;21.068;2022-12-29T02:54:31;9.30;97.30
5061;DHT22;2549;52.128;21.068;2022-12-29T02:59:49;9.20;97.50
5061;DHT22;2549;52.128;21.068;2022-12-29T03:02:23;9.20;97.70
5061;DHT22;2549;52.128;21.068;2022-12-29T03:07:58;9.20;98.30
5061;DHT22;2549;52.128;21.068;2022-12-29T03:10:52;9.20;98.60
5061;DHT22;2549;52.128;21.068;2022-12-29T03:13:46;9.10;99.10
5061;DHT22;2549;52.128;21.068;2022-12-29T03:16:44;9.10;99.60
5061;DHT22;2549;52.128;21.068;2022-12-29T03:19:30;9.00;99.90
5061;DHT22;2549;52.128;21.068;2022-12-29T03:22:06;8.90;99.90
5061;DHT22;2549;52.128;21.068;2022-12-29T03:24:56;8.90;99.90
5061;DHT22;2549;52.128;21.068;2022-12-29T03:27:39;8.80;99.90
5061;DHT22;2549;52.128;21.068;2022-12-29T03:30:07;8.90;99.90
5061;DHT22;2549;52.128;21.068;2022-12-29T03:32:46;8.90;99.90
5061;DHT22;2549;52.128;21.068;2022-12-29T03:35:16;8.80;99.90
5061;DHT22;2549;52.128;21.068;2022-12-29T03:37:58;8.80;99.90
5061;DHT22;2549;52.128;21.068;2022-12-29T03:40:27;8.80;99.90
5061;DHT22;2549;52.128;21.068;2022-12-29T03:42:55;8.80;99.90
5061;DHT22;2549;52.128;21.068;2022-12-29T03:45:22;8.80;99.90
5061;DHT22;2549;52.128;21.068;2022-12-29T03:47:49;8.80;99.90
5061;DHT22;2549;52.128;21.068;2022-12-29T03:50:17;8.80;99.90
5061;DHT22;2549;52.128;21.068;2022-12-29T03:52:44;8.80;99.90
5061;DHT22;2549;52.128;21.068;2022-12-29T03:55:11;8.80;99.90
5061;DHT22;2549;52.128;21.068;2022-12-29T03:57:38;8.80;99.90
5061;DHT22;2549;52.128;21.068;2022-12-29T04:00:05;8.80;99.90
5061;DHT22;2549;52.128;21.068;2022-12-29T04:02:33;8.70;99.90
5061;DHT22;2549;52.128;21.068;2022-12-29T04:05:00;8.70;99.90
5061;DHT22;2549;52.128;21.068;2022-12-29T04:07:26;8.70;99.90
5061;DHT22;2549;52.128;21.068;2022-12-29T04:09:53;8.60;99.90
5061;DHT22;2549;52.128;21.068;2022-12-29T04:12:20;8.60;99.90
5061;DHT22;2549;52.128;21.068;2022-12-29T04:14:47;8.60;99.90
5061;DHT22;2549;52.128;21.068;2022-12-29T04:17:14;8.60;99.90
5061;DHT22;2549;52.128;21.068;2022-12-29T04:19:41;8.60;99.90
5061;DHT22;2549;52.128;21.068;2022-12-29T04:22:08;8.50;99.90
5061;DHT22;2549;52.128;21.068;2022-12-29T04:24:35;8.50;99.90
5061;DHT22;2549;52.128;21.068;2022-12-29T04:27:01;8.50;99.90
5061;DHT22;2549;52.128;21.068;2022-12-29T04:29:28;8.40;99.90
5061;DHT22;2549;52.128;21.068;2022-12-29T04:31:55;8.40;99.90
5061;DHT22;2549;52.128;21.068;2022-12-29T04:34:22;8.40;99.90
5061;DHT22;2549;52.128;21.068;2022-12-29T04:36:49;8.40;99.90
5061;DHT22;2549;52.128;21.068;2022-12-29T04:39:15;8.40;99.90
5061;DHT22;2549;52.128;21.068;2022-12-29T04:41:42;8.40;99.90
5061;DHT22;2549;52.128;21.068;2022-12-29T04:44:09;8.40;99.90
5061;DHT22;2549;52.128;21.068;2022-12-29T04:46:36;8.40;99.90
5061;DHT22;2549;52.128;21.068;2022-12-29T04:49:03;8.30;99.90
5061;DHT22;2549;52.128;21.068;2022-12-29T04:51:35;8.30;99.90
5061;DHT22;2549;52.128;21.068;2022-12-29T04:54:02;8.30;99.90
5061;DHT22;2549;52.128;21.068;2022-12-29T04:56:29;8.30;99.90
5061;DHT22;2549;52.128;21.068;2022-12-29T04:58:56;8.30;99.90
5061;DHT22;2549;52.128;21.068;2022-12-29T05:01:23;8.30;99.90
5061;DHT22;2549;52.128;21.068;2022-12-29T05:03:51;8.30;99.90
5061;DHT22;2549;52.128;21.068;2022-12-29T05:06:19;8.30;99.90
5061;DHT22;2549;52.128;21.068;2022-12-29T05:08:45;8.30;99.90
5061;DHT22;2549;52.128;21.068;2022-12-29T05:11:13;8.30;99.90
5061;DHT22;2549;52.128;21.068;2022-12-29T05:13:39;8.20;99.90
5061;DHT22;2549;52.128;21.068;2022-12-29T05:16:06;8.30;99.90
5061;DHT22;2549;52.128;21.068;2022-12-29T05:18:33;8.20;99.90
5061;DHT22;2549;52.128;21.068;2022-12-29T05:21:00;8.30;99.90
5061;DHT22;2549;52.128;21.068;2022-12-29T05:23:27;8.30;99.90
5061;DHT22;2549;52.128;21.068;2022-12-29T05:25:54;8.20;99.90
5061;DHT22;2549;52.128;21.068;2022-12-29T05:28:21;8.30;99.90
5061;DHT22;2549;52.128;21.068;2022-12-29T05:30:49;8.20;99.90
5061;DHT22;2549;52.128;21.068;2022-12-29T05:33:18;8.20;99.90
5061;DHT22;2549;52.128;21.068;2022-12-29T05:35:45;8.20;99.90
5061;DHT22;2549;52.128;21.068;2022-12-29T05:38:12;8.20;99.90
5061;DHT22;2549;52.128;21.068;2022-12-29T05:40:39;8.30;99.90
5061;DHT22;2549;52.128;21.068;2022-12-29T05:43:05;8.30;99.60
5061;DHT22;2549;52.128;21.068;2022-12-29T05:45:33;8.30;99.50
5061;DHT22;2549;52.128;21.068;2022-12-29T05:48:00;8.30;99.30
5061;DHT22;2549;52.128;21.068;2022-12-29T05:50:26;8.30;99.50
5061;DHT22;2549;52.128;21.068;2022-12-29T05:52:53;8.30;99.20
5061;DHT22;2549;52.128;21.068;2022-12-29T05:55:20;8.30;99.20
5061;DHT22;2549;52.128;21.068;2022-12-29T05:57:47;8.30;99.10
5061;DHT22;2549;52.128;21.068;2022-12-29T06:00:15;8.30;99.10
5061;DHT22;2549;52.128;21.068;2022-12-29T06:02:42;8.30;99.00
5061;DHT22;2549;52.128;21.068;2022-12-29T06:05:09;8.30;98.90
5061;DHT22;2549;52.128;21.068;2022-12-29T06:07:36;8.30;98.90
5061;DHT22;2549;52.128;21.068;2022-12-29T06:10:07;8.30;98.90
5061;DHT22;2549;52.128;21.068;2022-12-29T06:12:34;8.30;98.70
5061;DHT22;2549;52.128;21.068;2022-12-29T06:15:01;8.30;98.60
5061;DHT22;2549;52.128;21.068;2022-12-29T06:17:28;8.30;98.60
5061;DHT22;2549;52.128;21.068;2022-12-29T06:19:55;8.30;98.50
5061;DHT22;2549;52.128;21.068;2022-12-29T06:22:21;8.30;98.40
5061;DHT22;2549;52.128;21.068;2022-12-29T06:24:48;8.30;98.40
5061;DHT22;2549;52.128;21.068;2022-12-29T06:27:15;8.40;98.30
5061;DHT22;2549;52.128;21.068;2022-12-29T06:29:42;8.40;98.20
5061;DHT22;2549;52.128;21.068;2022-12-29T06:32:09;8.40;98.20
5061;DHT22;2549;52.128;21.068;2022-12-29T06:34:36;8.40;98.10
5061;DHT22;2549;52.128;21.068;2022-12-29T06:37:03;8.40;98.00
5061;DHT22;2549;52.128;21.068;2022-12-29T06:39:30;8.40;97.90
5061;DHT22;2549;52.128;21.068;2022-12-29T06:41:57;8.40;97.80
5061;DHT22;2549;52.128;21.068;2022-12-29T06:44:24;8.50;97.90
5061;DHT22;2549;52.128;21.068;2022-12-29T06:46:51;8.50;97.80
5061;DHT22;2549;52.128;21.068;2022-12-29T06:49:18;8.50;97.90
5061;DHT22;2549;52.128;21.068;2022-12-29T06:51:45;8.50;97.70
5061;DHT22;2549;52.128;21.068;2022-12-29T06:54:12;8.50;97.70
5061;DHT22;2549;52.128;21.068;2022-12-29T06:56:39;8.50;97.80
5061;DHT22;2549;52.128;21.068;2022-12-29T06:59:06;8.50;97.70
5061;DHT22;2549;52.128;21.068;2022-12-29T07:01:33;8.50;97.60
5061;DHT22;2549;52.128;21.068;2022-12-29T07:04:03;8.60;97.70
5061;DHT22;2549;52.128;21.068;2022-12-29T07:06:30;8.60;97.60
5061;DHT22;2549;52.128;21.068;2022-12-29T07:08:57;8.60;97.40
5061;DHT22;2549;52.128;21.068;2022-12-29T07:11:24;8.60;97.40
5061;DHT22;2549;52.128;21.068;2022-12-29T07:13:51;8.60;97.40
5061;DHT22;2549;52.128;21.068;2022-12-29T07:16:18;8.60;97.30
5061;DHT22;2549;52.128;21.068;2022-12-29T07:18:45;8.60;97.30
5061;DHT22;2549;52.128;21.068;2022-12-29T07:21:12;8.70;97.30
5061;DHT22;2549;52.128;21.068;2022-12-29T07:23:39;8.70;97.50
5061;DHT22;2549;52.128;21.068;2022-12-29T07:26:07;8.70;97.10
5061;DHT22;2549;52.128;21.068;2022-12-29T07:28:36;8.70;97.10
5061;DHT22;2549;52.128;21.068;2022-12-29T07:31:05;8.70;97.00
5061;DHT22;2549;52.128;21.068;2022-12-29T07:33:33;8.70;96.90
5061;DHT22;2549;52.128;21.068;2022-12-29T07:36:00;8.70;97.00
5061;DHT22;2549;52.128;21.068;2022-12-29T07:38:26;8.70;97.00
5061;DHT22;2549;52.128;21.068;2022-12-29T07:40:57;8.70;96.80
5061;DHT22;2549;52.128;21.068;2022-12-29T07:43:25;8.80;96.90
5061;DHT22;2549;52.128;21.068;2022-12-29T07:45:52;8.80;96.90
5061;DHT22;2549;52.128;21.068;2022-12-29T07:48:19;8.80;96.80
5061;DHT22;2549;52.128;21.068;2022-12-29T07:50:46;8.80;96.80
5061;DHT22;2549;52.128;21.068;2022-12-29T07:53:13;8.80;96.80
5061;DHT22;2549;52.128;21.068;2022-12-29T07:55:40;8.80;96.80
5061;DHT22;2549;52.128;21.068;2022-12-29T07:58:07;8.80;96.80
5061;DHT22;2549;52.128;21.068;2022-12-29T08:00:34;8.80;96.80
5061;DHT22;2549;52.128;21.068;2022-12-29T08:03:01;8.90;97.10
5061;DHT22;2549;52.128;21.068;2022-12-29T08:05:28;8.90;96.70
5061;DHT22;2549;52.128;21.068;2022-12-29T08:07:56;8.90;96.50
5061;DHT22;2549;52.128;21.068;2022-12-29T08:10:23;8.90;96.50
5061;DHT22;2549;52.128;21.068;2022-12-29T08:12:51;8.90;96.60
5061;DHT22;2549;52.128;21.068;2022-12-29T08:15:18;9.00;96.50
5061;DHT22;2549;52.128;21.068;2022-12-29T08:17:45;9.00;96.30
5061;DHT22;2549;52.128;21.068;2022-12-29T08:20:12;9.00;96.20
5061;DHT22;2549;52.128;21.068;2022-12-29T08:22:39;9.00;96.00
5061;DHT22;2549;52.128;21.068;2022-12-29T08:25:06;9.10;96.00
5061;DHT22;2549;52.128;21.068;2022-12-29T08:27:33;9.10;96.00
5061;DHT22;2549;52.128;21.068;2022-12-29T08:30:01;9.20;96.00
5061;DHT22;2549;52.128;21.068;2022-12-29T08:32:28;9.20;95.90
5061;DHT22;2549;52.128;21.068;2022-12-29T08:34:55;9.20;95.70
5061;DHT22;2549;52.128;21.068;2022-12-29T08:37:22;9.20;95.60
5061;DHT22;2549;52.128;21.068;2022-12-29T08:39:57;9.20;95.60
5061;DHT22;2549;52.128;21.068;2022-12-29T08:42:26;9.20;95.50
5061;DHT22;2549;52.128;21.068;2022-12-29T08:44:58;9.30;95.50
5061;DHT22;2549;52.128;21.068;2022-12-29T08:47:26;9.30;95.40
5061;DHT22;2549;52.128;21.068;2022-12-29T08:49:53;9.30;95.30
5061;DHT22;2549;52.128;21.068;2022-12-29T08:52:20;9.30;95.30
5061;DHT22;2549;52.128;21.068;2022-12-29T08:54:47;9.30;95.20
5061;DHT22;2549;52.128;21.068;2022-12-29T08:57:14;9.40;95.20
5061;DHT22;2549;52.128;21.068;2022-12-29T08:59:40;9.40;95.40
5061;DHT22;2549;52.128;21.068;2022-12-29T09:02:10;9.50;95.10
5061;DHT22;2549;52.128;21.068;2022-12-29T09:04:41;9.50;94.90
5061;DHT22;2549;52.128;21.068;2022-12-29T09:07:09;9.50;94.70
5061;DHT22;2549;52.128;21.068;2022-12-29T09:09:35;9.50;94.80
5061;DHT22;2549;52.128;21.068;2022-12-29T09:12:03;9.60;94.90
5061;DHT22;2549;52.128;21.068;2022-12-29T09:14:29;9.60;94.90
5061;DHT22;2549;52.128;21.068;2022-12-29T09:16:56;9.60;94.70
5061;DHT22;2549;52.128;21.068;2022-12-29T09:19:42;9.60;94.70
5061;DHT22;2549;52.128;21.068;2022-12-29T09:22:09;9.60;94.70
5061;DHT22;2549;52.128;21.068;2022-12-29T09:24:36;9.70;94.70
5061;DHT22;2549;52.128;21.068;2022-12-29T09:27:03;9.70;94.70
5061;DHT22;2549;52.128;21.068;2022-12-29T09:29:29;9.70;94.70
5061;DHT22;2549;52.128;21.068;2022-12-29T09:31:56;9.70;94.80
5061;DHT22;2549;52.128;21.068;2022-12-29T09:34:23;9.80;94.80
5061;DHT22;2549;52.128;21.068;2022-12-29T09:36:50;9.80;94.70
5061;DHT22;2549;52.128;21.068;2022-12-29T09:39:17;9.80;94.60
5061;DHT22;2549;52.128;21.068;2022-12-29T09:47:13;9.90;94.50
5061;DHT22;2549;52.128;21.068;2022-12-29T09:49:47;9.90;94.40
5061;DHT22;2549;52.128;21.068;2022-12-29T09:52:27;9.90;94.40
5061;DHT22;2549;52.128;21.068;2022-12-29T09:55:03;10.00;93.90
5061;DHT22;2549;52.128;21.068;2022-12-29T09:58:05;10.00;94.00
5061;DHT22;2549;52.128;21.068;2022-12-29T10:03:24;10.00;93.90
5061;DHT22;2549;52.128;21.068;2022-12-29T10:06:15;10.00;93.90
5061;DHT22;2549;52.128;21.068;2022-12-29T10:09:25;10.00;93.90
5061;DHT22;2549;52.128;21.068;2022-12-29T10:20:26;10.00;93.90
5061;DHT22;2549;52.128;21.068;2022-12-29T10:25:41;10.10;93.90
5061;DHT22;2549;52.128;21.068;2022-12-29T10:28:38;10.10;93.90
5061;DHT22;2549;52.128;21.068;2022-12-29T10:31:16;10.10;93.80
5061;DHT22;2549;52.128;21.068;2022-12-29T10:34:05;10.10;93.80
5061;DHT22;2549;52.128;21.068;2022-12-29T10:36:46;10.10;93.70
5061;DHT22;2549;52.128;21.068;2022-12-29T10:39:55;10.10;93.80
5061;DHT22;2549;52.128;21.068;2022-12-29T10:44:56;10.10;93.70
5061;DHT22;2549;52.128;21.068;2022-12-29T10:47:26;10.20;93.60
5061;DHT22;2549;52.128;21.068;2022-12-29T10:49:55;10.20;93.70
5061;DHT22;2549;52.128;21.068;2022-12-29T10:52:22;10.30;93.60
5061;DHT22;2549;52.128;21.068;2022-12-29T10:57:33;10.40;93.90
5061;DHT22;2549;52.128;21.068;2022-12-29T11:00:10;10.40;93.70
5061;DHT22;2549;52.128;21.068;2022-12-29T11:02:43;10.40;93.60
5061;DHT22;2549;52.128;21.068;2022-12-29T11:07:47;10.50;93.50
5061;DHT22;2549;52.128;21.068;2022-12-29T11:10:29;10.50;93.60
5061;DHT22;2549;52.128;21.068;2022-12-29T11:15:23;10.50;93.50
5061;DHT22;2549;52.128;21.068;2022-12-29T11:17:58;10.50;93.30
5061;DHT22;2549;52.128;21.068;2022-12-29T11:22:57;10.60;93.40
5061;DHT22;2549;52.128;21.068;2022-12-29T11:25:25;10.70;93.50
5061;DHT22;2549;52.128;21.068;2022-12-29T11:28:02;10.70;93.30
5061;DHT22;2549;52.128;21.068;2022-12-29T11:30:31;10.70;93.40
5061;DHT22;2549;52.128;21.068;2022-12-29T11:33:02;10.70;93.30
5061;DHT22;2549;52.128;21.068;2022-12-29T11:38:01;10.70;93.30
5061;DHT22;2549;52.128;21.068;2022-12-29T11:40:29;10.80;93.40
5061;DHT22;2549;52.128;21.068;2022-12-29T11:42:58;10.70;93.30
5061;DHT22;2549;52.128;21.068;2022-12-29T11:45:27;10.70;93.30
5061;DHT22;2549;52.128;21.068;2022-12-29T11:50:31;10.80;93.30
5061;DHT22;2549;52.128;21.068;2022-12-29T11:53:23;10.80;93.40
5061;DHT22;2549;52.128;21.068;2022-12-29T11:55:56;10.80;93.40
5061;DHT22;2549;52.128;21.068;2022-12-29T11:58:35;10.80;93.30
5061;DHT22;2549;52.128;21.068;2022-12-29T12:01:23;10.80;93.50
5061;DHT22;2549;52.128;21.068;2022-12-29T12:06:29;10.90;93.50
5061;DHT22;2549;52.128;21.068;2022-12-29T12:09:10;10.90;93.50
5061;DHT22;2549;52.128;21.068;2022-12-29T12:11:42;10.90;93.50
5061;DHT22;2549;52.128;21.068;2022-12-29T12:14:25;10.90;93.50
5061;DHT22;2549;52.128;21.068;2022-12-29T12:17:00;11.00;93.50
5061;DHT22;2549;52.128;21.068;2022-12-29T12:22:39;11.00;93.50
5061;DHT22;2549;52.128;21.068;2022-12-29T12:25:12;11.00;93.50
5061;DHT22;2549;52.128;21.068;2022-12-29T12:30:37;11.00;93.70
5061;DHT22;2549;52.128;21.068;2022-12-29T12:33:10;11.00;93.80
5061;DHT22;2549;52.128;21.068;2022-12-29T12:36:04;11.00;93.70
5061;DHT22;2549;52.128;21.068;2022-12-29T12:43:50;11.10;93.80
5061;DHT22;2549;52.128;21.068;2022-12-29T12:49:32;11.20;93.80
5061;DHT22;2549;52.128;21.068;2022-12-29T12:53:03;11.10;93.80
5061;DHT22;2549;52.128;21.068;2022-12-29T12:56:02;11.20;93.90
5061;DHT22;2549;52.128;21.068;2022-12-29T12:58:55;11.20;93.80
5061;DHT22;2549;52.128;21.068;2022-12-29T13:01:38;11.20;93.80
5061;DHT22;2549;52.128;21.068;2022-12-29T13:10:01;11.20;93.90
5061;DHT22;2549;52.128;21.068;2022-12-29T13:12:41;11.20;93.90
5061;DHT22;2549;52.128;21.068;2022-12-29T13:27:41;11.30;93.90
5061;DHT22;2549;52.128;21.068;2022-12-29T13:36:18;11.30;93.80
5061;DHT22;2549;52.128;21.068;2022-12-29T13:39:17;11.40;93.90
5061;DHT22;2549;52.128;21.068;2022-12-29T13:41:53;11.40;93.90
5061;DHT22;2549;52.128;21.068;2022-12-29T13:44:50;11.40;94.10
5061;DHT22;2549;52.128;21.068;2022-12-29T13:47:41;11.40;93.80
5061;DHT22;2549;52.128;21.068;2022-12-29T13:50:15;11.40;93.90
5061;DHT22;2549;52.128;21.068;2022-12-29T13:58:18;11.50;93.70
5061;DHT22;2549;52.128;21.068;2022-12-29T14:01:00;11.50;93.70
5061;DHT22;2549;52.128;21.068;2022-12-29T14:03:50;11.50;93.60
5061;DHT22;2549;52.128;21.068;2022-12-29T14:06:32;11.50;93.60
5061;DHT22;2549;52.128;21.068;2022-12-29T14:09:04;11.50;93.90
5061;DHT22;2549;52.128;21.068;2022-12-29T14:11:41;11.50;93.60
5061;DHT22;2549;52.128;21.068;2022-12-29T14:14:16;11.60;93.70
5061;DHT22;2549;52.128;21.068;2022-12-29T14:16:54;11.50;93.60
5061;DHT22;2549;52.128;21.068;2022-12-29T14:19:42;11.50;93.60
5061;DHT22;2549;52.128;21.068;2022-12-29T14:22:13;11.60;93.60
5061;DHT22;2549;52.128;21.068;2022-12-29T14:24:46;11.60;93.60
5061;DHT22;2549;52.128;21.068;2022-12-29T14:34:57;11.50;93.60
5061;DHT22;2549;52.128;21.068;2022-12-29T14:37:26;11.60;93.70
5061;DHT22;2549;52.128;21.068;2022-12-29T14:42:35;11.60;93.70
5061;DHT22;2549;52.128;21.068;2022-12-29T14:47:47;11.50;93.70
5061;DHT22;2549;52.128;21.068;2022-12-29T14:52:58;11.60;93.70
5061;DHT22;2549;52.128;21.068;2022-12-29T15:00:57;11.60;93.70
5061;DHT22;2549;52.128;21.068;2022-12-29T15:06:03;11.60;93.70
5061;DHT22;2549;52.128;21.068;2022-12-29T15:08:39;11.60;93.70
5061;DHT22;2549;52.128;21.068;2022-12-29T15:11:14;11.60;93.80
5061;DHT22;2549;52.128;21.068;2022-12-29T15:13:43;11.60;93.80
5061;DHT22;2549;52.128;21.068;2022-12-29T15:16:30;11.70;93.80
5061;DHT22;2549;52.128;21.068;2022-12-29T15:18:58;11.70;93.80
5061;DHT22;2549;52.128;21.068;2022-12-29T15:21:31;11.70;93.80
5061;DHT22;2549;52.128;21.068;2022-12-29T15:23:58;11.60;93.80
5061;DHT22;2549;52.128;21.068;2022-12-29T15:26:38;11.70;93.80
5061;DHT22;2549;52.128;21.068;2022-12-29T15:29:05;11.70;93.80
5061;DHT22;2549;52.128;21.068;2022-12-29T15:31:54;11.70;93.90
5061;DHT22;2549;52.128;21.068;2022-12-29T15:34:22;11.70;93.90
5061;DHT22;2549;52.128;21.068;2022-12-29T15:36:50;11.70;93.90
5061;DHT22;2549;52.128;21.068;2022-12-29T15:39:26;11.70;93.90
5061;DHT22;2549;52.128;21.068;2022-12-29T15:42:02;11.70;93.90
5061;DHT22;2549;52.128;21.068;2022-12-29T15:44:42;11.70;94.00
5061;DHT22;2549;52.128;21.068;2022-12-29T15:47:20;11.70;94.10
5061;DHT22;2549;52.128;21.068;2022-12-29T15:49:49;11.70;94.10
5061;DHT22;2549;52.128;21.068;2022-12-29T15:52:19;11.70;94.10
5061;DHT22;2549;52.128;21.068;2022-12-29T15:54:49;11.70;94.10
5061;DHT22;2549;52.128;21.068;2022-12-29T15:57:37;11.70;94.20
5061;DHT22;2549;52.128;21.068;2022-12-29T16:00:21;11.60;94.20
5061;DHT22;2549;52.128;21.068;2022-12-29T16:02:49;11.60;94.10
5061;DHT22;2549;52.128;21.068;2022-12-29T16:05:17;11.60;94.20
5061;DHT22;2549;52.128;21.068;2022-12-29T16:07:59;11.60;94.30
5061;DHT22;2549;52.128;21.068;2022-12-29T16:10:35;11.60;94.40
5061;DHT22;2549;52.128;21.068;2022-12-29T16:15:45;11.50;94.40
5061;DHT22;2549;52.128;21.068;2022-12-29T16:18:33;11.50;94.50
5061;DHT22;2549;52.128;21.068;2022-12-29T16:21:03;11.50;94.50
5061;DHT22;2549;52.128;21.068;2022-12-29T16:23:32;11.50;94.60
5061;DHT22;2549;52.128;21.068;2022-12-29T16:26:02;11.50;94.70
5061;DHT22;2549;52.128;21.068;2022-12-29T16:28:39;11.50;94.70
5061;DHT22;2549;52.128;21.068;2022-12-29T16:34:33;11.50;94.80
5061;DHT22;2549;52.128;21.068;2022-12-29T16:39:49;11.40;94.80
5061;DHT22;2549;52.128;21.068;2022-12-29T16:42:35;11.40;94.90
5061;DHT22;2549;52.128;21.068;2022-12-29T16:50:35;11.40;95.00
5061;DHT22;2549;52.128;21.068;2022-12-29T16:53:04;11.40;95.10
5061;DHT22;2549;52.128;21.068;2022-12-29T16:55:32;11.40;95.10
5061;DHT22;2549;52.128;21.068;2022-12-29T16:57:59;11.40;95.10
5061;DHT22;2549;52.128;21.068;2022-12-29T17:00:30;11.40;95.10
5061;DHT22;2549;52.128;21.068;2022-12-29T17:03:00;11.40;95.20
5061;DHT22;2549;52.128;21.068;2022-12-29T17:05:27;11.50;95.20
5061;DHT22;2549;52.128;21.068;2022-12-29T17:07:54;11.50;95.50
5061;DHT22;2549;52.128;21.068;2022-12-29T17:10:29;11.50;95.20
5061;DHT22;2549;52.128;21.068;2022-12-29T17:13:14;11.50;95.20
5061;DHT22;2549;52.128;21.068;2022-12-29T17:15:41;11.50;95.30
5061;DHT22;2549;52.128;21.068;2022-12-29T17:18:08;11.50;95.30
5061;DHT22;2549;52.128;21.068;2022-12-29T17:20:40;11.50;95.30
5061;DHT22;2549;52.128;21.068;2022-12-29T17:23:14;11.50;95.20
5061;DHT22;2549;52.128;21.068;2022-12-29T17:25:52;11.50;95.30
5061;DHT22;2549;52.128;21.068;2022-12-29T17:28:28;11.50;95.30
5061;DHT22;2549;52.128;21.068;2022-12-29T17:31:00;11.50;95.30
5061;DHT22;2549;52.128;21.068;2022-12-29T17:33:30;11.50;95.30
5061;DHT22;2549;52.128;21.068;2022-12-29T17:36:00;11.50;95.30
5061;DHT22;2549;52.128;21.068;2022-12-29T17:38:34;11.60;95.30
5061;DHT22;2549;52.128;21.068;2022-12-29T17:41:01;11.60;95.30
5061;DHT22;2549;52.128;21.068;2022-12-29T17:43:28;11.50;95.20
5061;DHT22;2549;52.128;21.068;2022-12-29T17:46:05;11.50;95.30
5061;DHT22;2549;52.128;21.068;2022-12-29T17:48:32;11.50;95.20
5061;DHT22;2549;52.128;21.068;2022-12-29T17:50:59;11.50;95.20
5061;DHT22;2549;52.128;21.068;2022-12-29T17:53:28;11.50;95.20
5061;DHT22;2549;52.128;21.068;2022-12-29T17:55:56;11.50;95.60
5061;DHT22;2549;52.128;21.068;2022-12-29T17:58:25;11.50;95.20
5061;DHT22;2549;52.128;21.068;2022-12-29T18:00:55;11.50;95.20
5061;DHT22;2549;52.128;21.068;2022-12-29T18:03:39;11.50;95.20
5061;DHT22;2549;52.128;21.068;2022-12-29T18:06:09;11.50;95.20
5061;DHT22;2549;52.128;21.068;2022-12-29T18:08:38;11.50;95.20
5061;DHT22;2549;52.128;21.068;2022-12-29T18:11:25;11.50;95.30
5061;DHT22;2549;52.128;21.068;2022-12-29T18:13:53;11.50;95.30
5061;DHT22;2549;52.128;21.068;2022-12-29T18:16:20;11.50;95.30
5061;DHT22;2549;52.128;21.068;2022-12-29T18:18:48;11.50;95.30
5061;DHT22;2549;52.128;21.068;2022-12-29T18:21:19;11.50;95.30
5061;DHT22;2549;52.128;21.068;2022-12-29T18:23:47;11.50;95.30
5061;DHT22;2549;52.128;21.068;2022-12-29T18:26:23;11.50;95.30
5061;DHT22;2549;52.128;21.068;2022-12-29T18:28:55;11.50;95.40
5061;DHT22;2549;52.128;21.068;2022-12-29T18:31:24;11.50;95.30
5061;DHT22;2549;52.128;21.068;2022-12-29T18:33:52;11.50;95.30
5061;DHT22;2549;52.128;21.068;2022-12-29T18:36:20;11.50;95.40
5061;DHT22;2549;52.128;21.068;2022-12-29T18:38:48;11.50;95.30
5061;DHT22;2549;52.128;21.068;2022-12-29T18:43:48;11.40;95.40
5061;DHT22;2549;52.128;21.068;2022-12-29T18:46:14;11.40;95.40
5061;DHT22;2549;52.128;21.068;2022-12-29T18:48:48;11.40;95.50
5061;DHT22;2549;52.128;21.068;2022-12-29T18:51:21;11.40;95.50
5061;DHT22;2549;52.128;21.068;2022-12-29T18:53:48;11.40;95.40
5061;DHT22;2549;52.128;21.068;2022-12-29T18:56:15;11.40;95.50